Time;durP1;ratioP1;P1;durP2;ratioP2;P2;SDS_P1;SDS_P2;PMS_P1;PMS_P2;Temp;Humidity;BMP_temperature;BMP_pressure;BME280_temperature;BME280_humidity;BME280_pressure;Samples;Min_cycle;Max_cycle;Signal;HPM_P1;HPM_P2
2022/07/15 02:48:22;;;;;;;3.35;1.27;;;21.50;63.20;;;;;;4938509;23;89320;-70
2022/07/15 02:50:49;;;;;;;2.45;1.13;;;21.60;63.00;;;;;;4899463;28;86892;-70
2022/07/15 02:53:15;;;;;;;3.88;1.05;;;21.60;63.20;;;;;;4901042;28;86873;-69
2022/07/15 02:55:41;;;;;;;5.28;1.40;;;21.50;63.50;;;;;;4898106;28;87151;-69
2022/07/15 02:58:08;;;;;;;7.97;1.13;;;21.50;63.50;;;;;;4898965;28;87059;-70
2022/07/15 03:00:34;;;;;;;2.47;1.00;;;21.50;63.90;;;;;;4900633;28;87207;-68
2022/07/15 03:02:59;;;;;;;7.40;1.40;;;21.40;63.50;;;;;;4901096;28;86745;-69
2022/07/15 03:05:25;;;;;;;3.03;1.20;;;21.40;64.00;;;;;;4900129;28;87162;-69
2022/07/15 03:07:51;;;;;;;4.25;1.33;;;21.40;63.80;;;;;;4899038;28;86956;-69
2022/07/15 03:10:17;;;;;;;4.10;1.13;;;21.40;63.80;;;;;;4900232;28;87838;-69
2022/07/15 03:12:43;;;;;;;2.67;1.02;;;21.30;64.20;;;;;;4899876;28;87152;-70
2022/07/15 03:15:10;;;;;;;2.72;0.95;;;21.30;63.70;;;;;;4900440;28;87254;-69
2022/07/15 03:17:35;;;;;;;3.95;1.15;;;21.40;63.20;;;;;;4900643;28;87447;-69
2022/07/15 03:20:01;;;;;;;4.28;0.98;;;21.40;62.90;;;;;;4899384;28;87528;-69
2022/07/15 03:22:29;;;;;;;3.58;1.02;;;21.30;63.20;;;;;;4899048;28;87083;-69
2022/07/15 03:24:55;;;;;;;3.88;1.15;;;21.40;63.70;;;;;;4890553;28;87744;-70
2022/07/15 03:27:21;;;;;;;4.22;1.00;;;21.40;63.10;;;;;;4882105;28;87010;-68
2022/07/15 03:29:46;;;;;;;3.53;1.02;;;21.30;63.20;;;;;;4900091;28;86918;-72
2022/07/15 03:32:15;;;;;;;2.75;0.90;;;21.30;63.20;;;;;;4899775;28;86896;-70
2022/07/15 03:34:42;;;;;;;2.63;1.23;;;21.30;63.30;;;;;;4898996;28;88275;-68
2022/07/15 03:37:08;;;;;;;2.58;1.13;;;21.30;63.30;;;;;;4900194;28;88320;-69
2022/07/15 03:39:33;;;;;;;5.55;1.08;;;21.30;63.80;;;;;;4899493;28;87285;-70
2022/07/15 03:41:59;;;;;;;4.03;1.63;;;21.20;63.40;;;;;;4899902;28;86790;-69
2022/07/15 03:44:25;;;;;;;4.10;1.13;;;21.20;63.90;;;;;;4900359;28;88101;-69
2022/07/15 03:46:51;;;;;;;6.85;1.45;;;21.20;63.90;;;;;;4897176;28;87973;-70
2022/07/15 03:49:16;;;;;;;4.65;1.23;;;21.20;63.90;;;;;;4900047;28;87021;-69
2022/07/15 03:51:43;;;;;;;3.78;0.85;;;21.00;64.10;;;;;;4900279;28;86450;-70
2022/07/15 03:54:09;;;;;;;5.03;1.20;;;21.00;63.90;;;;;;4899270;28;87166;-72
2022/07/15 03:56:35;;;;;;;7.30;1.23;;;21.10;63.40;;;;;;4894559;28;88115;-71
2022/07/15 03:59:01;;;;;;;2.38;1.02;;;21.10;63.30;;;;;;4897246;28;88842;-69
2022/07/15 04:01:26;;;;;;;4.35;1.02;;;21.10;63.40;;;;;;4899571;28;87252;-70
2022/07/15 04:03:53;;;;;;;6.45;1.15;;;21.10;63.10;;;;;;4910673;28;87665;-70
2022/07/15 04:06:20;;;;;;;7.53;1.10;;;21.10;62.90;;;;;;4912411;28;87483;-70
2022/07/15 04:08:46;;;;;;;4.13;0.85;;;21.20;62.80;;;;;;4899610;28;87043;-69
2022/07/15 04:11:13;;;;;;;4.72;1.10;;;21.20;63.10;;;;;;4903792;28;86816;-69
2022/07/15 04:13:39;;;;;;;2.50;0.88;;;21.30;62.90;;;;;;4896728;28;87699;-69
2022/07/15 04:16:07;;;;;;;6.63;0.90;;;21.30;62.30;;;;;;4899546;28;87902;-69
2022/07/15 04:18:33;;;;;;;3.95;1.13;;;21.40;62.10;;;;;;4891408;28;86955;-70
2022/07/15 04:20:59;;;;;;;3.47;1.00;;;21.40;62.10;;;;;;4918788;28;87120;-69
2022/07/15 04:23:25;;;;;;;3.83;1.10;;;21.40;62.10;;;;;;4918211;28;87940;-69
2022/07/15 04:25:52;;;;;;;5.28;1.20;;;21.30;62.60;;;;;;4899388;28;88523;-69
2022/07/15 04:28:18;;;;;;;3.78;1.02;;;21.30;61.90;;;;;;4898484;28;86965;-68
2022/07/15 04:30:44;;;;;;;4.35;1.10;;;21.40;61.90;;;;;;4899351;28;87501;-69
2022/07/15 04:33:10;;;;;;;3.85;1.20;;;21.50;61.50;;;;;;4898328;28;87460;-69
2022/07/15 04:35:37;;;;;;;3.22;0.90;;;21.70;61.20;;;;;;4901172;28;87465;-70
2022/07/15 04:38:02;;;;;;;7.05;0.98;;;21.80;60.90;;;;;;4904374;28;87023;-70
2022/07/15 04:40:28;;;;;;;2.35;1.02;;;21.90;60.60;;;;;;4899078;28;86135;-69
2022/07/15 04:42:54;;;;;;;3.83;1.38;;;22.00;60.40;;;;;;4886286;28;87077;-69
2022/07/15 04:45:20;;;;;;;4.45;1.27;;;22.40;60.10;;;;;;4893573;28;87498;-69
2022/07/15 04:47:45;;;;;;;4.50;1.33;;;22.60;59.00;;;;;;4898217;28;87557;-69
2022/07/15 04:52:55;;;;;;;2.50;0.82;;;23.20;57.80;;;;;;4902788;28;86689;-70
2022/07/15 04:55:21;;;;;;;9.65;1.15;;;23.10;57.40;;;;;;4902568;28;86670;-70
2022/07/15 04:57:47;;;;;;;3.70;1.00;;;23.10;57.90;;;;;;4901814;28;86881;-70
2022/07/15 05:00:12;;;;;;;5.25;1.25;;;23.00;57.90;;;;;;4902314;28;87085;-72
2022/07/15 05:02:38;;;;;;;3.10;1.08;;;23.00;58.30;;;;;;4901879;28;88335;-71
2022/07/15 05:05:06;;;;;;;4.00;0.93;;;23.00;58.40;;;;;;4903646;28;87835;-71
2022/07/15 05:07:32;;;;;;;2.90;1.00;;;23.20;57.30;;;;;;4902904;28;87038;-72
2022/07/15 05:09:58;;;;;;;5.43;1.00;;;23.30;57.40;;;;;;4906036;28;86978;-71
2022/07/15 05:12:23;;;;;;;5.68;1.20;;;23.30;57.20;;;;;;4916323;28;87987;-72
2022/07/15 05:14:49;;;;;;;8.93;1.13;;;23.50;57.40;;;;;;4902975;28;87851;-72
2022/07/15 05:17:15;;;;;;;4.88;1.00;;;23.60;57.40;;;;;;4903376;28;86173;-71
2022/07/15 05:19:40;;;;;;;4.20;1.23;;;23.90;56.80;;;;;;4903559;28;87166;-71
2022/07/15 05:22:06;;;;;;;5.80;1.88;;;23.70;56.40;;;;;;4902926;28;86664;-72
2022/07/15 05:24:32;;;;;;;5.07;0.98;;;23.70;57.00;;;;;;4902636;28;86957;-70
2022/07/15 05:26:59;;;;;;;4.30;1.00;;;23.70;56.60;;;;;;4900602;28;87083;-71
2022/07/15 05:29:25;;;;;;;6.13;1.33;;;23.70;57.30;;;;;;4902842;28;86304;-71
2022/07/15 05:31:51;;;;;;;5.15;0.95;;;23.80;57.50;;;;;;4902127;28;87362;-70
2022/07/15 05:34:17;;;;;;;4.63;1.13;;;24.00;57.20;;;;;;4902719;28;87461;-74
2022/07/15 05:36:43;;;;;;;4.82;1.20;;;24.70;56.40;;;;;;4902131;28;87364;-70
2022/07/15 05:39:09;;;;;;;7.00;1.38;;;24.70;54.90;;;;;;4901858;28;86983;-73
2022/07/15 05:41:35;;;;;;;4.38;1.20;;;24.40;55.40;;;;;;4899487;28;87047;-70
2022/07/15 05:44:01;;;;;;;2.60;1.10;;;24.20;55.60;;;;;;4901533;28;88264;-71
2022/07/15 05:46:26;;;;;;;2.92;0.90;;;24.30;55.80;;;;;;4885131;28;86861;-72
2022/07/15 05:48:52;;;;;;;6.68;1.23;;;24.40;55.80;;;;;;4898440;28;87076;-73
2022/07/15 05:51:18;;;;;;;5.82;1.40;;;24.30;56.30;;;;;;4905391;28;87496;-71
2022/07/15 05:53:44;;;;;;;5.03;1.13;;;24.40;54.50;;;;;;4893470;28;86280;-71
2022/07/15 05:56:10;;;;;;;4.88;1.15;;;24.10;55.80;;;;;;4899473;28;86969;-71
2022/07/15 05:58:36;;;;;;;4.45;1.27;;;23.90;55.90;;;;;;4892350;28;87061;-70
2022/07/15 06:01:02;;;;;;;3.45;1.10;;;24.20;55.30;;;;;;4897907;28;87967;-73
2022/07/15 06:03:28;;;;;;;3.60;1.10;;;24.70;54.80;;;;;;4882343;28;87514;-75
2022/07/15 06:05:54;;;;;;;3.95;1.17;;;25.10;53.90;;;;;;4900666;28;87427;-71
2022/07/15 06:08:19;;;;;;;5.68;1.50;;;25.80;53.20;;;;;;4902325;28;87477;-71
2022/07/15 06:10:45;;;;;;;3.47;0.95;;;25.80;51.30;;;;;;4906627;28;87680;-73
2022/07/15 06:13:11;;;;;;;4.95;1.27;;;25.60;52.10;;;;;;4888672;28;87538;-71
2022/07/15 06:15:38;;;;;;;3.72;1.10;;;25.60;51.50;;;;;;4882947;28;87400;-72
2022/07/15 06:18:04;;;;;;;3.88;0.93;;;25.40;52.20;;;;;;4892416;28;86355;-73
2022/07/15 06:20:30;;;;;;;3.55;1.08;;;24.90;53.70;;;;;;4883230;28;87681;-75
2022/07/15 06:22:55;;;;;;;5.25;1.10;;;24.60;54.20;;;;;;4883171;28;86995;-71
2022/07/15 06:25:22;;;;;;;3.97;1.05;;;24.70;54.60;;;;;;4885544;28;87622;-77
2022/07/15 06:27:47;;;;;;;5.78;1.45;;;25.40;52.40;;;;;;4895093;28;87036;-72
2022/07/15 06:30:13;;;;;;;3.78;1.42;;;25.50;52.20;;;;;;4895338;28;87371;-71
2022/07/15 06:32:39;;;;;;;7.13;1.38;;;25.30;52.40;;;;;;4901385;28;87430;-72
2022/07/15 06:35:06;;;;;;;3.00;0.93;;;25.30;53.40;;;;;;4900079;28;87161;-71
2022/07/15 06:37:32;;;;;;;2.95;1.05;;;25.60;53.20;;;;;;4901286;28;86912;-70
2022/07/15 06:39:58;;;;;;;7.25;1.08;;;26.50;52.00;;;;;;4899551;28;87122;-72
2022/07/15 06:42:24;;;;;;;4.00;1.13;;;27.30;50.80;;;;;;4896365;28;86168;-71
2022/07/15 06:44:50;;;;;;;3.42;1.23;;;28.10;48.80;;;;;;4897397;28;87441;-73
2022/07/15 06:47:16;;;;;;;4.70;1.73;;;27.10;50.10;;;;;;4899750;28;87319;-69
2022/07/15 06:49:41;;;;;;;4.47;1.20;;;27.90;50.50;;;;;;4898286;28;89815;-76
2022/07/15 06:52:07;;;;;;;2.65;0.80;;;28.70;48.70;;;;;;4903398;28;87143;-71
2022/07/15 06:54:33;;;;;;;4.57;1.55;;;30.20;49.10;;;;;;4904969;28;86841;-72
2022/07/15 06:57:01;;;;;;;4.95;1.15;;;32.30;44.90;;;;;;4902490;28;87147;-71
2022/07/15 06:59:27;;;;;;;9.63;1.77;;;34.10;40.70;;;;;;4900060;28;88253;-71
2022/07/15 07:01:53;;;;;;;4.63;1.40;;;34.30;40.80;;;;;;4909307;28;88323;-73
2022/07/15 07:04:19;;;;;;;3.83;1.40;;;32.50;41.90;;;;;;4902299;28;87059;-72
2022/07/15 07:06:45;;;;;;;4.43;1.58;;;33.40;42.10;;;;;;4899221;28;86421;-74
2022/07/15 07:09:11;;;;;;;3.25;1.30;;;34.00;40.20;;;;;;4890242;28;87617;-70
2022/07/15 07:11:39;;;;;;;3.80;2.22;;;34.60;39.80;;;;;;4905851;28;88208;-72
2022/07/15 07:14:05;;;;;;;3.10;1.50;;;35.80;38.40;;;;;;4897392;28;88068;-72
2022/07/15 07:16:32;;;;;;;3.78;1.50;;;36.10;39.00;;;;;;4899615;28;87188;-73
2022/07/15 07:18:57;;;;;;;6.75;1.65;;;36.40;37.00;;;;;;4899277;28;87247;-72
2022/07/15 07:21:23;;;;;;;4.13;1.73;;;37.50;36.50;;;;;;4908510;28;87045;-70
2022/07/15 07:23:49;;;;;;;4.88;2.47;;;39.40;35.50;;;;;;4912022;28;86998;-70
2022/07/15 07:26:16;;;;;;;4.45;1.70;;;40.10;35.40;;;;;;4895329;28;86920;-74
2022/07/15 07:28:43;;;;;;;4.03;2.10;;;39.00;34.90;;;;;;4898745;28;87197;-72
2022/07/15 07:31:11;;;;;;;5.95;2.08;;;38.00;35.20;;;;;;4900639;28;87294;-71
2022/07/15 07:33:38;;;;;;;4.72;1.85;;;36.60;36.90;;;;;;4896949;28;87011;-74
2022/07/15 07:36:05;;;;;;;4.88;1.83;;;36.60;36.30;;;;;;4900824;28;86970;-72
2022/07/15 07:38:32;;;;;;;6.25;2.00;;;36.30;37.80;;;;;;4897352;28;89203;-71
2022/07/15 07:40:58;;;;;;;3.72;2.20;;;37.20;35.80;;;;;;4897631;28;87313;-74
2022/07/15 07:43:24;;;;;;;4.05;2.65;;;38.00;35.30;;;;;;4899690;28;86952;-75
2022/07/15 07:45:50;;;;;;;4.80;2.55;;;38.80;34.80;;;;;;4897497;28;86967;-72
2022/07/15 07:48:16;;;;;;;4.80;2.33;;;39.60;34.60;;;;;;4899343;28;87704;-73
2022/07/15 07:50:43;;;;;;;5.60;2.47;;;39.40;34.60;;;;;;4900811;28;87059;-72
2022/07/15 07:53:09;;;;;;;5.68;2.85;;;41.10;33.60;;;;;;4898785;28;86981;-77
2022/07/15 07:55:36;;;;;;;5.75;2.35;;;42.40;31.30;;;;;;4915469;28;86242;-74
2022/07/15 07:58:02;;;;;;;6.78;2.72;;;42.20;31.60;;;;;;4917900;28;87835;-72
2022/07/15 08:00:30;;;;;;;4.25;2.42;;;41.90;31.40;;;;;;4914997;28;87805;-74
2022/07/15 08:02:57;;;;;;;5.90;2.50;;;41.40;31.90;;;;;;4900447;28;88282;-72
2022/07/15 08:05:23;;;;;;;4.70;2.42;;;42.00;31.90;;;;;;4900534;28;87618;-71
2022/07/15 08:07:49;;;;;;;5.07;2.70;;;41.00;31.70;;;;;;4913566;28;88607;-71
2022/07/15 08:10:15;;;;;;;6.18;2.83;;;38.70;34.70;;;;;;4911097;28;86980;-73
2022/07/15 08:12:41;;;;;;;5.45;3.05;;;39.70;34.30;;;;;;4913834;28;87076;-74
2022/07/15 08:15:10;;;;;;;5.43;3.15;;;40.90;33.20;;;;;;4903656;28;87034;-74
2022/07/15 08:17:37;;;;;;;5.60;2.60;;;42.00;32.30;;;;;;4917260;28;87142;-73
2022/07/15 08:20:05;;;;;;;10.05;2.67;;;41.60;31.90;;;;;;4898547;28;87003;-74
2022/07/15 08:22:31;;;;;;;6.18;2.63;;;41.60;32.30;;;;;;4899137;28;87333;-72
2022/07/15 08:24:57;;;;;;;4.75;3.03;;;42.20;32.30;;;;;;4898872;28;86772;-75
2022/07/15 08:27:23;;;;;;;5.97;3.03;;;43.10;31.70;;;;;;4896611;28;88603;-72
2022/07/15 08:29:48;;;;;;;4.70;3.72;;;44.40;30.00;;;;;;4898673;28;89010;-70
2022/07/15 08:32:14;;;;;;;4.93;3.10;;;44.00;30.00;;;;;;4897801;28;86917;-74
2022/07/15 08:34:41;;;;;;;5.22;2.70;;;43.70;29.90;;;;;;4898745;28;87045;-71
2022/07/15 08:37:09;;;;;;;5.28;3.05;;;41.80;31.30;;;;;;4899007;28;86701;-76
2022/07/15 08:39:36;;;;;;;4.45;3.15;;;42.70;32.70;;;;;;4903400;28;87015;-71
2022/07/15 08:42:03;;;;;;;5.47;2.55;;;43.80;31.20;;;;;;4916358;28;86854;-74
2022/07/15 08:44:29;;;;;;;6.43;3.30;;;43.60;29.60;;;;;;4917326;28;86257;-73
2022/07/15 08:47:01;;;;;;;4.25;2.72;;;41.60;30.30;;;;;;4908247;28;88375;-72
2022/07/15 08:49:29;;;;;;;6.80;3.15;;;39.20;32.70;;;;;;4898573;28;87109;-73
2022/07/15 08:51:56;;;;;;;;;;;39.10;33.40;;;;;;4899064;28;87612;-71
2022/07/15 08:54:22;;;;;;;6.20;2.83;;;38.00;33.50;;;;;;4913804;28;86954;-72
2022/07/15 08:56:48;;;;;;;3.72;2.30;;;35.40;35.70;;;;;;4916428;28;87570;-71
2022/07/15 08:59:15;;;;;;;5.15;2.40;;;33.60;38.70;;;;;;4909873;28;88077;-73
2022/07/15 09:01:46;;;;;;;6.75;2.42;;;34.50;37.70;;;;;;4898114;28;86837;-72
2022/07/15 09:04:13;;;;;;;4.38;2.30;;;33.70;39.20;;;;;;4898093;28;87005;-72
2022/07/15 09:06:47;;;;;;;3.38;1.85;;;33.10;39.20;;;;;;4898526;28;88141;-73
2022/07/15 09:09:29;;;;;;;5.10;1.98;;;33.60;38.90;;;;;;4898847;28;86948;-73
2022/07/15 09:12:09;;;;;;;4.47;1.90;;;34.40;38.00;;;;;;4906285;28;87060;-72
2022/07/15 09:14:38;;;;;;;5.68;2.25;;;34.60;37.60;;;;;;4897879;28;87134;-75
2022/07/15 09:17:09;;;;;;;;;;;35.40;37.60;;;;;;4897976;28;88891;-73
2022/07/15 09:19:58;;;;;;;5.25;2.63;;;35.60;38.00;;;;;;4899161;28;87215;-72
2022/07/15 09:22:26;;;;;;;5.85;3.25;;;38.60;36.00;;;;;;4895718;28;87085;-73
2022/07/15 09:25:07;;;;;;;6.25;2.88;;;42.80;31.70;;;;;;4896538;28;87315;-69
2022/07/15 09:27:37;;;;;;;4.45;3.30;;;42.90;30.70;;;;;;4896128;28;87018;-72
2022/07/15 09:36:03;;;;;;;4.97;4.40;;;44.90;29.90;;;;;;4916127;28;87049;-71
2022/07/15 09:38:35;;;;;;;6.43;3.53;;;47.60;28.10;;;;;;4920503;28;87116;-70
2022/07/15 09:41:02;;;;;;;5.15;4.07;;;48.50;28.20;;;;;;4900134;28;87787;-70
2022/07/15 09:43:28;;;;;;;4.43;4.03;;;46.50;28.30;;;;;;4900787;28;87851;-71
2022/07/15 09:46:01;;;;;;;7.50;5.05;;;47.00;28.90;;;;;;4901603;28;87048;-71
2022/07/15 09:48:28;;;;;;;7.38;4.60;;;48.00;28.30;;;;;;4900580;28;87348;-71
2022/07/15 09:50:59;;;;;;;9.77;4.88;;;47.90;28.90;;;;;;4901117;28;87603;-71
2022/07/15 09:53:25;;;;;;;5.32;4.63;;;47.20;28.00;;;;;;4900817;28;86898;-71
2022/07/15 09:55:52;;;;;;;5.28;4.43;;;47.50;28.20;;;;;;4900503;28;86945;-59
2022/07/15 09:58:20;;;;;;;5.97;5.03;;;47.70;28.60;;;;;;4900013;28;88265;-71
2022/07/15 10:00:46;;;;;;;10.88;6.65;;;49.90;28.10;;;;;;4899420;28;86867;-73
2022/07/15 10:03:12;;;;;;;8.43;5.05;;;50.50;27.60;;;;;;4901081;28;87179;-71
2022/07/15 10:05:39;;;;;;;5.00;4.60;;;50.00;26.90;;;;;;4900443;28;87071;-74
2022/07/15 10:08:08;;;;;;;5.90;5.28;;;48.80;27.50;;;;;;4899602;28;88062;-72
2022/07/15 10:10:37;;;;;;;8.32;5.00;;;49.30;28.00;;;;;;4890210;28;87742;-71
2022/07/15 10:13:21;;;;;;;11.50;7.95;;;49.40;27.50;;;;;;4900718;28;87464;-71
2022/07/15 10:15:50;;;;;;;7.78;5.90;;;45.50;28.40;;;;;;4900407;28;86969;-70
2022/07/15 10:18:19;;;;;;;8.98;4.78;;;41.40;31.80;;;;;;4898019;28;87510;-71
2022/07/15 10:21:02;;;;;;;5.68;3.78;;;38.60;33.80;;;;;;4899897;28;88367;-72
2022/07/15 10:23:53;;;;;;;4.47;3.05;;;36.30;37.00;;;;;;4900476;28;86983;-70
2022/07/15 10:26:26;;;;;;;3.90;2.85;;;34.90;35.50;;;;;;4901119;28;85919;-71
2022/07/15 10:28:58;;;;;;;6.32;2.58;;;34.00;38.40;;;;;;4894271;28;88017;-71
2022/07/15 10:31:29;;;;;;;4.43;2.63;;;33.70;40.00;;;;;;4899453;28;87331;-73
2022/07/15 10:34:04;;;;;;;6.05;2.35;;;32.70;39.80;;;;;;4899883;28;87890;-73
2022/07/15 10:36:39;;;;;;;6.13;2.45;;;32.50;39.90;;;;;;4899464;28;87149;-72
2022/07/15 10:39:08;;;;;;;6.55;2.60;;;31.70;41.90;;;;;;4900359;28;87295;-72
2022/07/15 10:41:52;;;;;;;;;;;31.50;43.60;;;;;;4899861;28;86962;-73
2022/07/15 10:44:18;;;;;;;6.45;2.03;;;31.80;41.60;;;;;;4901267;28;87019;-74
2022/07/15 10:46:44;;;;;;;4.68;1.70;;;32.10;40.50;;;;;;4900305;28;87429;-71
2022/07/15 10:49:10;;;;;;;4.38;1.83;;;31.90;40.20;;;;;;4899623;28;88184;-72
2022/07/15 10:51:35;;;;;;;4.18;1.45;;;31.70;42.00;;;;;;4900493;28;86373;-73
2022/07/15 10:54:10;;;;;;;5.40;1.42;;;31.20;44.80;;;;;;4900224;28;87081;-73
2022/07/15 10:56:44;;;;;;;7.63;1.95;;;31.00;41.30;;;;;;4899316;28;87235;-72
2022/07/15 10:59:15;;;;;;;3.58;1.67;;;30.70;45.60;;;;;;4899039;28;88595;-71
2022/07/15 11:01:46;;;;;;;3.85;1.65;;;30.20;46.00;;;;;;4899800;28;88873;-71
2022/07/15 11:04:15;;;;;;;4.28;1.73;;;30.20;45.60;;;;;;4898711;28;87459;-74
2022/07/15 11:07:09;;;;;;;4.40;1.60;;;30.30;42.90;;;;;;4899149;28;87197;-73
2022/07/15 11:09:45;;;;;;;4.50;1.98;;;30.20;45.20;;;;;;4899283;28;87689;-72
2022/07/15 11:12:11;;;;;;;7.75;2.13;;;30.10;45.30;;;;;;4899112;28;86963;-71
2022/07/15 11:14:52;;;;;;;5.60;1.67;;;30.10;47.00;;;;;;4899849;28;86837;-72
2022/07/15 11:17:29;;;;;;;6.85;1.60;;;29.70;45.60;;;;;;4900101;28;85872;-72
2022/07/15 11:20:08;;;;;;;4.85;2.40;;;29.20;48.20;;;;;;4899549;28;88198;-71
2022/07/15 11:22:38;;;;;;;6.03;1.70;;;29.30;44.70;;;;;;4894361;28;87872;-71
2022/07/15 11:25:05;;;;;;;8.23;1.58;;;29.60;47.00;;;;;;4887566;28;88013;-72
2022/07/15 11:27:31;;;;;;;3.97;1.70;;;29.40;47.70;;;;;;4899484;28;87134;-71
2022/07/15 11:30:03;;;;;;;10.15;1.70;;;29.40;46.10;;;;;;4898871;28;88234;-74
2022/07/15 11:32:31;;;;;;;3.28;1.70;;;28.90;46.60;;;;;;4898102;28;87267;-72
2022/07/15 11:34:59;;;;;;;3.28;1.33;;;28.70;49.90;;;;;;4899869;28;86993;-72
2022/07/15 11:37:34;;;;;;;4.00;2.03;;;28.90;47.30;;;;;;4892085;28;88073;-71
2022/07/15 11:40:08;;;;;;;4.40;1.60;;;28.80;49.20;;;;;;4898283;28;87292;-72
2022/07/15 11:45:37;;;;;;;14.32;1.75;;;29.00;48.00;;;;;;4903958;28;87091;-71
2022/07/15 11:48:06;;;;;;;4.28;1.30;;;29.00;47.60;;;;;;4895450;28;87113;-72
2022/07/15 11:50:33;;;;;;;8.23;1.85;;;28.90;48.60;;;;;;4895569;28;89136;-73
2022/07/15 11:52:59;;;;;;;7.28;2.05;;;28.90;49.60;;;;;;4895530;28;87231;-71
2022/07/15 11:55:25;;;;;;;7.95;1.85;;;28.70;48.70;;;;;;4908614;28;87624;-70
2022/07/15 11:57:54;;;;;;;5.00;1.52;;;28.70;48.00;;;;;;4907462;28;87411;-71
2022/07/15 12:00:29;;;;;;;7.65;1.50;;;28.70;49.50;;;;;;4903396;28;87237;-73
2022/07/15 12:03:07;;;;;;;5.32;1.65;;;29.00;49.40;;;;;;4896588;28;87341;-74
2022/07/15 12:05:32;;;;;;;4.63;2.00;;;28.80;49.00;;;;;;4895746;28;87124;-71
2022/07/15 12:07:58;;;;;;;6.88;1.58;;;28.90;48.60;;;;;;4916686;28;86150;-72
2022/07/15 12:10:34;;;;;;;5.63;1.73;;;29.10;48.40;;;;;;4905559;28;87601;-73
2022/07/15 12:13:01;;;;;;;4.75;1.42;;;29.20;48.40;;;;;;4909262;28;87091;-73
2022/07/15 12:15:29;;;;;;;6.90;1.58;;;29.00;47.80;;;;;;4897416;28;88515;-72
2022/07/15 12:17:55;;;;;;;15.10;1.90;;;28.40;48.70;;;;;;4898417;28;87500;-71
2022/07/15 12:20:22;;;;;;;8.75;2.13;;;28.20;48.20;;;;;;4896352;28;86995;-71
2022/07/15 12:23:06;;;;;;;5.30;1.73;;;28.20;49.90;;;;;;4897550;28;86916;-71
2022/07/15 12:25:32;;;;;;;5.55;1.45;;;28.30;49.40;;;;;;4896919;28;86988;-71
2022/07/15 12:27:58;;;;;;;6.78;2.00;;;28.30;51.30;;;;;;4903927;28;87159;-72
2022/07/15 12:30:42;;;;;;;7.10;1.70;;;28.30;50.80;;;;;;4898445;28;87257;-72
2022/07/15 12:33:19;;;;;;;7.05;1.80;;;28.30;49.20;;;;;;4893998;28;86941;-73
2022/07/15 12:35:46;;;;;;;17.95;2.00;;;28.00;48.30;;;;;;4892427;28;87862;-75
2022/07/15 12:38:30;;;;;;;6.57;1.55;;;28.10;48.20;;;;;;4894208;28;86978;-71
2022/07/15 12:41:10;;;;;;;4.55;1.73;;;28.50;47.00;;;;;;4894458;28;89392;-71
2022/07/15 12:43:57;;;;;;;4.57;1.35;;;28.50;46.80;;;;;;4897779;28;87710;-71
2022/07/15 12:46:56;;;;;;;9.00;1.90;;;28.10;48.70;;;;;;4897087;28;87116;-73
2022/07/15 12:49:41;;;;;;;3.40;1.63;;;28.30;48.50;;;;;;4866970;28;87131;-71
2022/07/15 12:52:22;;;;;;;4.32;1.70;;;28.70;48.70;;;;;;4870678;28;87014;-70
2022/07/15 12:54:50;;;;;;;4.68;1.48;;;28.20;48.30;;;;;;4870586;28;87031;-72
2022/07/15 12:57:35;;;;;;;7.93;1.73;;;28.40;49.70;;;;;;4884496;28;87174;-75
2022/07/15 13:00:12;;;;;;;4.03;1.75;;;28.30;48.80;;;;;;4877950;28;86327;-72
2022/07/15 13:03:11;;;;;;;9.05;1.63;;;28.20;49.00;;;;;;4873623;28;86694;-72
2022/07/15 13:05:40;;;;;;;4.72;1.42;;;28.20;49.00;;;;;;4885839;28;87203;-71
2022/07/15 13:08:08;;;;;;;7.28;1.50;;;28.20;46.80;;;;;;4898163;28;87757;-70
2022/07/15 13:10:34;;;;;;;6.75;1.92;;;28.30;49.40;;;;;;4881233;28;86994;-71
2022/07/15 13:13:01;;;;;;;5.90;1.55;;;28.00;50.30;;;;;;4881150;28;89107;-70
2022/07/15 13:15:26;;;;;;;5.78;1.60;;;28.00;50.00;;;;;;4877079;28;86999;-71
2022/07/15 13:17:53;;;;;;;3.28;1.52;;;27.90;49.70;;;;;;4877147;28;86921;-71
2022/07/15 13:20:19;;;;;;;6.15;1.83;;;27.90;51.90;;;;;;4901537;28;87043;-72
2022/07/15 13:22:45;;;;;;;8.50;1.25;;;28.00;49.60;;;;;;4865532;28;87273;-75
2022/07/15 13:25:11;;;;;;;5.13;1.65;;;28.30;50.00;;;;;;4880669;28;87192;-70
2022/07/15 13:27:37;;;;;;;2.72;1.38;;;28.50;51.20;;;;;;4894406;28;86974;-72
2022/07/15 13:30:04;;;;;;;5.70;1.35;;;28.80;48.60;;;;;;4874873;28;87158;-72
2022/07/15 13:32:30;;;;;;;5.53;1.95;;;29.00;48.10;;;;;;4879899;28;88424;-70
2022/07/15 13:34:56;;;;;;;3.50;1.48;;;28.60;49.30;;;;;;4881894;28;87586;-72
2022/07/15 13:37:22;;;;;;;4.47;1.63;;;28.70;50.00;;;;;;4884623;28;87128;-71
2022/07/15 13:39:47;;;;;;;6.10;1.75;;;28.70;50.50;;;;;;4873980;28;87543;-72
2022/07/15 13:42:13;;;;;;;6.85;1.92;;;28.30;48.90;;;;;;4876863;28;88601;-72
2022/07/15 13:44:40;;;;;;;6.95;1.58;;;28.30;50.10;;;;;;4881587;28;87521;-71
2022/07/15 13:47:06;;;;;;;5.10;2.17;;;28.50;49.10;;;;;;4893529;28;86932;-70
2022/07/15 13:52:16;;;;;;;5.50;1.27;;;28.30;48.60;;;;;;4899879;28;86970;-73
2022/07/15 13:54:42;;;;;;;3.58;1.83;;;28.40;49.10;;;;;;4900367;28;87155;-71
2022/07/15 13:57:08;;;;;;;4.25;1.70;;;28.40;50.40;;;;;;4898473;28;88246;-72
2022/07/15 13:59:33;;;;;;;7.43;2.13;;;28.40;50.70;;;;;;4900755;28;86933;-70
2022/07/15 14:01:59;;;;;;;4.50;1.30;;;28.40;47.80;;;;;;4899831;28;87804;-71
2022/07/15 14:04:25;;;;;;;3.72;1.27;;;28.30;49.10;;;;;;4900292;28;87853;-70
2022/07/15 14:06:50;;;;;;;8.05;1.60;;;28.40;49.50;;;;;;4900737;28;87011;-71
2022/07/15 14:09:16;;;;;;;3.50;1.50;;;28.40;47.60;;;;;;4900320;28;87089;-71
2022/07/15 14:11:42;;;;;;;8.13;1.55;;;28.40;48.30;;;;;;4912860;28;87702;-70
2022/07/15 14:14:08;;;;;;;5.35;1.73;;;28.70;49.20;;;;;;4918978;28;87343;-71
2022/07/15 14:16:33;;;;;;;6.50;1.75;;;28.50;49.90;;;;;;4910072;28;87378;-70
2022/07/15 14:18:59;;;;;;;4.82;1.88;;;28.60;48.00;;;;;;4915354;28;87275;-70
2022/07/15 14:21:25;;;;;;;3.13;1.35;;;28.60;46.80;;;;;;4899958;28;88104;-70
2022/07/15 14:23:50;;;;;;;6.28;2.08;;;28.30;47.00;;;;;;4903758;28;88807;-71
2022/07/15 14:26:16;;;;;;;5.20;1.50;;;28.30;48.80;;;;;;4904253;28;86977;-70
2022/07/15 14:28:43;;;;;;;2.95;1.30;;;28.10;46.70;;;;;;4904869;28;87018;-72
2022/07/15 14:31:13;;;;;;;3.05;1.38;;;28.10;49.30;;;;;;4908308;28;88095;-73
2022/07/15 14:33:40;;;;;;;3.97;2.30;;;28.50;46.40;;;;;;4904582;28;88216;-71
2022/07/15 14:36:07;;;;;;;5.65;1.67;;;28.60;44.70;;;;;;4909192;28;87109;-70
2022/07/15 14:38:35;;;;;;;2.80;1.27;;;28.70;43.10;;;;;;4916814;28;86698;-71
2022/07/15 14:41:00;;;;;;;3.08;1.27;;;28.60;43.30;;;;;;4899791;28;87195;-70
2022/07/15 14:43:26;;;;;;;3.03;1.50;;;28.50;44.30;;;;;;4899977;28;87049;-73
2022/07/15 14:45:52;;;;;;;3.25;1.02;;;28.50;43.60;;;;;;4899418;28;87946;-70
2022/07/15 14:48:18;;;;;;;7.53;1.48;;;28.50;46.20;;;;;;4871941;28;87082;-72
2022/07/15 14:50:44;;;;;;;2.92;1.35;;;28.50;42.00;;;;;;4874365;28;87515;-73
2022/07/15 14:53:09;;;;;;;5.45;1.48;;;28.60;42.50;;;;;;4872178;28;87832;-71
2022/07/15 14:55:35;;;;;;;7.03;1.25;;;28.60;44.10;;;;;;4867275;28;86987;-68
2022/07/15 14:58:03;;;;;;;9.35;1.02;;;28.50;49.90;;;;;;4878252;28;86952;-68
2022/07/15 15:00:29;;;;;;;2.95;1.45;;;28.40;48.10;;;;;;4871395;28;88839;-66
2022/07/15 15:02:55;;;;;;;1.73;0.95;;;28.40;45.40;;;;;;4873828;28;86469;-67
2022/07/15 15:05:21;;;;;;;3.92;1.63;;;28.50;43.70;;;;;;4876776;28;87304;-67
2022/07/15 15:07:47;;;;;;;4.65;1.40;;;28.40;44.30;;;;;;4878683;28;87216;-65
2022/07/15 15:10:13;;;;;;;6.32;1.45;;;28.20;45.10;;;;;;4872822;28;88930;-70
2022/07/15 15:12:39;;;;;;;5.97;1.25;;;28.10;48.70;;;;;;4866422;28;88342;-66
2022/07/15 15:15:06;;;;;;;4.00;1.38;;;28.00;45.00;;;;;;4875222;28;87151;-66
2022/07/15 15:17:32;;;;;;;6.88;1.20;;;28.20;46.90;;;;;;4872586;28;87017;-67
2022/07/15 15:19:58;;;;;;;8.32;1.25;;;28.10;45.00;;;;;;4864872;28;87142;-67
2022/07/15 15:22:23;;;;;;;4.15;1.65;;;28.10;49.70;;;;;;4866596;28;86757;-69
2022/07/15 15:24:49;;;;;;;6.43;1.50;;;28.20;50.80;;;;;;4877040;28;87074;-67
2022/07/15 15:27:15;;;;;;;4.53;1.23;;;28.20;46.30;;;;;;4874993;28;86086;-66
2022/07/15 15:29:41;;;;;;;4.30;1.35;;;28.10;45.40;;;;;;4873336;28;87212;-66
2022/07/15 15:32:11;;;;;;;2.92;1.15;;;28.10;46.10;;;;;;4879979;28;87038;-66
2022/07/15 15:34:39;;;;;;;2.97;1.40;;;28.10;41.80;;;;;;4877079;28;87954;-66
2022/07/15 15:37:05;;;;;;;8.48;1.73;;;28.00;49.40;;;;;;4874973;28;87471;-68
2022/07/15 15:39:30;;;;;;;4.28;1.67;;;28.00;44.70;;;;;;4879053;28;86938;-66
2022/07/15 15:41:56;;;;;;;5.38;1.60;;;28.10;42.80;;;;;;4878798;28;87119;-66
2022/07/15 15:44:24;;;;;;;5.68;1.85;;;28.10;47.50;;;;;;4875629;28;87224;-67
2022/07/15 15:46:49;;;;;;;4.63;1.45;;;27.90;45.80;;;;;;4884847;28;86992;-66
2022/07/15 15:49:15;;;;;;;2.90;1.02;;;27.90;50.00;;;;;;4906414;28;87755;-66
2022/07/15 15:51:41;;;;;;;2.15;1.05;;;27.80;45.60;;;;;;4918548;28;86370;-66
2022/07/15 15:54:06;;;;;;;4.07;1.42;;;27.90;42.80;;;;;;4919135;28;86858;-67